Time;durP1;ratioP1;P1;durP2;ratioP2;P2;SDS_P1;SDS_P2;PMS_P1;PMS_P2;Temp;Humidity;BMP_temperature;BMP_pressure;BME280_temperature;BME280_humidity;BME280_pressure;Samples;Min_cycle;Max_cycle;Signal;HPM_P1;HPM_P2
2021/01/28 00:03:44;;;;;;;4.55;2.97;;;1.80;99.90;;;;;;8365840;28;20041;-73
2021/01/28 00:07:45;;;;;;;5.32;3.28;;;1.80;99.90;;;;;;8364887;28;20047;-71
2021/01/28 00:11:45;;;;;;;10.70;7.07;;;1.90;99.90;;;;;;8364721;28;20029;-71
2021/01/28 00:15:46;;;;;;;11.68;7.47;;;1.90;99.90;;;;;;8365664;28;20021;-71
2021/01/28 00:19:46;;;;;;;10.30;6.93;;;1.90;99.90;;;;;;8365393;28;20091;-71
2021/01/28 00:23:47;;;;;;;9.52;5.60;;;1.80;99.90;;;;;;8363935;28;20446;-70
2021/01/28 00:27:49;;;;;;;12.98;7.07;;;1.90;99.90;;;;;;8382730;28;20111;-70
2021/01/28 00:31:49;;;;;;;5.10;3.17;;;1.90;99.90;;;;;;8397002;28;20029;-70
2021/01/28 00:35:52;;;;;;;10.27;6.05;;;1.90;99.90;;;;;;8397913;28;20107;-71
2021/01/28 00:39:53;;;;;;;8.63;5.25;;;1.90;99.90;;;;;;8396960;28;20406;-73
2021/01/28 00:43:53;;;;;;;10.98;6.63;;;1.90;99.90;;;;;;8396432;28;20048;-75
2021/01/28 00:47:55;;;;;;;12.63;7.57;;;1.90;99.90;;;;;;8396655;28;20075;-73
2021/01/28 00:51:56;;;;;;;4.70;2.97;;;1.90;99.90;;;;;;8396532;28;20066;-73
2021/01/28 00:55:56;;;;;;;10.40;6.50;;;1.90;99.90;;;;;;8397451;28;20597;-73
2021/01/28 00:59:57;;;;;;;12.35;7.47;;;1.90;99.90;;;;;;8396228;28;20086;-73
2021/01/28 01:03:57;;;;;;;8.40;5.55;;;1.90;99.90;;;;;;8392762;28;20048;-73
2021/01/28 01:07:59;;;;;;;11.57;6.47;;;1.90;99.90;;;;;;8364289;28;20033;-73
2021/01/28 01:12:00;;;;;;;13.02;7.70;;;2.00;99.90;;;;;;8363513;28;20053;-73
2021/01/28 01:16:02;;;;;;;9.20;5.28;;;2.00;99.90;;;;;;8363714;28;20029;-73
2021/01/28 01:20:04;;;;;;;12.30;7.13;;;2.00;99.90;;;;;;8363632;28;20032;-73
2021/01/28 01:24:05;;;;;;;14.35;8.38;;;2.00;99.90;;;;;;8363244;28;20052;-73
2021/01/28 01:28:06;;;;;;;18.40;9.30;;;2.10;99.90;;;;;;8363153;28;20104;-73
2021/01/28 01:32:07;;;;;;;17.83;9.63;;;2.10;99.90;;;;;;8363395;28;20024;-73
2021/01/28 01:36:08;;;;;;;18.45;10.13;;;2.10;99.90;;;;;;8361828;28;20564;-73
2021/01/28 01:40:11;;;;;;;19.52;10.70;;;2.00;99.90;;;;;;8363238;28;20126;-73
2021/01/28 01:44:12;;;;;;;20.90;10.43;;;2.00;99.90;;;;;;8361527;28;20495;-72
2021/01/28 01:48:52;;;;;;;23.42;11.88;;;2.30;99.90;;;;;;8362877;28;20017;-73
2021/01/28 01:52:52;;;;;;;20.10;10.55;;;2.20;99.90;;;;;;8362575;28;20037;-73
2021/01/28 01:57:01;;;;;;;20.90;10.82;;;2.20;99.90;;;;;;8362441;28;20052;-73
2021/01/28 02:01:02;;;;;;;23.40;11.30;;;2.20;99.90;;;;;;8362666;28;20542;-73
2021/01/28 02:05:14;;;;;;;24.77;12.90;;;2.20;99.90;;;;;;8360862;28;20369;-74
2021/01/28 02:09:14;;;;;;;25.92;13.70;;;2.10;99.90;;;;;;8361479;28;20082;-73
2021/01/28 02:13:15;;;;;;;23.52;12.57;;;2.20;99.90;;;;;;8361260;28;20017;-73
2021/01/28 02:17:18;;;;;;;22.75;12.43;;;2.10;99.90;;;;;;8361834;28;20024;-73
2021/01/28 02:21:29;;;;;;;21.30;10.40;;;2.10;99.90;;;;;;8361182;28;20029;-73
2021/01/28 02:25:33;;;;;;;23.23;10.68;;;2.30;99.90;;;;;;8358689;28;20037;-73
2021/01/28 02:29:34;;;;;;;19.80;10.20;;;2.30;99.90;;;;;;8359867;28;20029;-73
2021/01/28 02:33:43;;;;;;;24.65;12.60;;;2.30;99.90;;;;;;8358372;28;20036;-73
2021/01/28 02:37:46;;;;;;;21.77;10.13;;;2.20;99.90;;;;;;8359927;28;20021;-73
2021/01/28 02:41:56;;;;;;;23.52;12.68;;;2.30;99.90;;;;;;8361209;28;20031;-73
2021/01/28 02:46:04;;;;;;;24.10;12.88;;;2.30;99.90;;;;;;8360837;28;20029;-73
2021/01/28 02:50:05;;;;;;;26.52;13.13;;;2.20;99.90;;;;;;8359635;28;20040;-74
2021/01/28 02:54:05;;;;;;;25.33;12.77;;;2.30;99.90;;;;;;8359464;28;20024;-73
2021/01/28 02:58:06;;;;;;;25.92;13.32;;;2.30;99.90;;;;;;8360751;28;20032;-74
2021/01/28 03:02:19;;;;;;;24.92;12.93;;;2.30;99.90;;;;;;8360725;28;20072;-74
2021/01/28 03:06:19;;;;;;;24.20;12.43;;;2.30;99.90;;;;;;8360173;28;20028;-73
2021/01/28 03:10:22;;;;;;;22.30;11.10;;;2.30;99.90;;;;;;8359281;28;20013;-73
2021/01/28 03:14:22;;;;;;;22.85;11.25;;;2.30;99.90;;;;;;8359070;28;20053;-73
2021/01/28 03:18:24;;;;;;;20.20;9.60;;;2.20;99.90;;;;;;8358964;28;20025;-73
2021/01/28 03:22:24;;;;;;;17.70;9.70;;;2.40;99.90;;;;;;8358757;28;20484;-73
2021/01/28 03:26:25;;;;;;;24.45;11.88;;;2.30;99.90;;;;;;8359385;28;20044;-73
2021/01/28 03:30:37;;;;;;;22.55;11.35;;;2.30;99.90;;;;;;8360095;28;20025;-74
2021/01/28 03:34:37;;;;;;;21.85;11.02;;;2.30;99.90;;;;;;8359850;28;20032;-74
2021/01/28 03:38:38;;;;;;;20.17;10.02;;;2.40;99.90;;;;;;8358574;28;20033;-74
2021/01/28 03:42:38;;;;;;;20.70;10.32;;;2.40;99.90;;;;;;8359917;28;20029;-74
2021/01/28 03:46:39;;;;;;;16.45;8.98;;;2.30;99.90;;;;;;8360204;28;20403;-75
2021/01/28 03:50:40;;;;;;;19.42;10.52;;;2.30;99.90;;;;;;8368245;28;20138;-74
2021/01/28 03:54:40;;;;;;;19.30;10.00;;;2.40;99.90;;;;;;8358957;28;20388;-74
2021/01/28 03:58:41;;;;;;;20.42;10.82;;;2.40;99.90;;;;;;8359437;28;20033;-74
2021/01/28 04:02:42;;;;;;;10.85;5.93;;;2.50;99.90;;;;;;8357980;28;20418;-74
2021/01/28 04:06:43;;;;;;;16.02;8.93;;;2.40;99.90;;;;;;8357355;28;20056;-73
2021/01/28 04:10:43;;;;;;;15.93;8.57;;;2.60;99.90;;;;;;8357881;28;20029;-73
2021/01/28 04:14:44;;;;;;;12.68;6.85;;;2.50;99.90;;;;;;8358709;28;20086;-73
2021/01/28 04:18:45;;;;;;;14.77;8.20;;;2.50;99.90;;;;;;8362740;28;20036;-73
2021/01/28 04:22:45;;;;;;;14.63;8.07;;;2.50;99.90;;;;;;8368290;28;20028;-73
2021/01/28 04:26:46;;;;;;;10.07;5.72;;;2.50;99.90;;;;;;8373796;28;20109;-73
2021/01/28 04:30:46;;;;;;;11.07;6.55;;;2.40;99.90;;;;;;8368890;28;20120;-73
2021/01/28 04:34:47;;;;;;;11.40;6.15;;;2.50;99.90;;;;;;8372415;28;20107;-73
2021/01/28 04:38:47;;;;;;;8.45;4.97;;;2.50;99.90;;;;;;8374557;28;20029;-74
2021/01/28 04:42:49;;;;;;;8.13;4.78;;;2.50;99.90;;;;;;8384657;28;20033;-73
2021/01/28 04:46:53;;;;;;;6.40;3.92;;;2.50;99.90;;;;;;8390804;28;20029;-73
2021/01/28 04:50:57;;;;;;;6.47;4.47;;;2.50;99.90;;;;;;8381774;28;20029;-74
2021/01/28 04:54:58;;;;;;;5.63;3.65;;;2.60;99.90;;;;;;8388049;28;20070;-72
2021/01/28 04:59:10;;;;;;;2.28;1.33;;;2.60;99.90;;;;;;8378199;28;20036;-73
2021/01/28 05:03:24;;;;;;;3.38;2.22;;;2.70;99.90;;;;;;8394005;28;20036;-73
2021/01/28 05:07:36;;;;;;;5.45;3.42;;;2.70;99.90;;;;;;8392022;28;20111;-73
2021/01/28 05:11:37;;;;;;;5.53;3.15;;;2.70;99.90;;;;;;8389724;28;20391;-73
2021/01/28 05:15:42;;;;;;;4.88;3.25;;;2.70;99.90;;;;;;8382417;28;20027;-75
2021/01/28 05:19:52;;;;;;;4.65;3.20;;;2.70;99.90;;;;;;8394914;28;20055;-73
2021/01/28 05:24:01;;;;;;;2.72;1.77;;;2.70;99.90;;;;;;8397534;28;20021;-73
2021/01/28 05:28:26;;;;;;;4.00;2.67;;;2.80;99.90;;;;;;8368554;28;20032;-73
2021/01/28 05:32:43;;;;;;;6.85;3.67;;;2.90;99.90;;;;;;8377890;28;20606;-74
2021/01/28 05:36:52;;;;;;;5.15;3.72;;;3.00;99.90;;;;;;8364684;28;20029;-69
2021/01/28 05:40:58;;;;;;;4.38;2.63;;;3.10;99.90;;;;;;8361141;28;20056;-68
2021/01/28 05:44:58;;;;;;;3.10;2.08;;;2.90;99.90;;;;;;8360940;28;20021;-68
2021/01/28 05:49:04;;;;;;;5.43;3.35;;;2.90;99.90;;;;;;8361364;28;20053;-67
2021/01/28 05:53:15;;;;;;;5.47;3.30;;;2.90;99.90;;;;;;8361142;28;20025;-68
2021/01/28 05:57:36;;;;;;;4.20;2.45;;;2.80;99.90;;;;;;8361835;28;20025;-68
2021/01/28 06:01:39;;;;;;;;;;;2.80;99.90;;;;;;8362305;28;20112;-68
2021/01/28 06:05:57;;;;;;;4.68;2.45;;;2.80;99.90;;;;;;8361502;28;20268;-68
2021/01/28 06:10:15;;;;;;;6.68;3.20;;;2.80;99.90;;;;;;8362057;28;20024;-68
2021/01/28 06:14:41;;;;;;;5.07;3.30;;;2.90;99.90;;;;;;8360557;28;20111;-68
2021/01/28 06:19:03;;;;;;;2.65;2.13;;;2.90;99.90;;;;;;8361845;28;20027;-68
2021/01/28 06:23:24;;;;;;;4.85;3.55;;;2.90;99.90;;;;;;8361388;28;20040;-68
2021/01/28 06:27:43;;;;;;;5.00;3.50;;;2.90;99.90;;;;;;8361682;28;20667;-68
2021/01/28 06:32:25;;;;;;;3.67;2.35;;;2.90;99.90;;;;;;8363759;28;20020;-67
2021/01/28 06:36:57;;;;;;;4.78;1.92;;;3.00;99.90;;;;;;8389090;28;20036;-67
2021/01/28 06:41:03;;;;;;;2.30;1.60;;;3.10;99.90;;;;;;8394242;28;20021;-69
2021/01/28 06:45:33;;;;;;;4.93;3.13;;;3.20;99.90;;;;;;8392308;28;20032;-69
2021/01/28 06:50:09;;;;;;;4.32;3.13;;;3.20;99.90;;;;;;8393146;28;20040;-68
2021/01/28 06:54:24;;;;;;;3.72;2.92;;;3.30;99.90;;;;;;8377718;28;20055;-69
2021/01/28 06:58:46;;;;;;;5.20;3.47;;;3.30;99.90;;;;;;8360565;28;20412;-69
2021/01/28 07:03:12;;;;;;;2.55;2.00;;;3.40;99.90;;;;;;8359173;28;20438;-69
2021/01/28 07:07:17;;;;;;;1.45;1.23;;;3.40;99.90;;;;;;8359719;28;20025;-68
2021/01/28 07:11:34;;;;;;;3.20;2.40;;;3.50;99.90;;;;;;8368011;28;20029;-68
2021/01/28 07:15:35;;;;;;;2.55;1.98;;;3.50;99.90;;;;;;8393030;28;20036;-69
2021/01/28 07:19:39;;;;;;;4.25;2.78;;;3.50;99.90;;;;;;8392789;28;20040;-69
2021/01/28 07:23:40;;;;;;;2.40;2.03;;;3.50;99.90;;;;;;8392862;28;20029;-69
2021/01/28 07:28:02;;;;;;;2.88;2.33;;;3.60;99.90;;;;;;8392631;28;20021;-69
2021/01/28 07:32:09;;;;;;;2.40;1.83;;;3.70;99.90;;;;;;8392954;28;20475;-68
2021/01/28 07:36:12;;;;;;;3.20;2.30;;;3.70;99.90;;;;;;8392707;28;20025;-69
2021/01/28 07:40:51;;;;;;;2.60;1.75;;;3.70;99.90;;;;;;8393002;28;20029;-68
2021/01/28 07:44:57;;;;;;;1.92;1.42;;;3.80;99.90;;;;;;8373146;28;20036;-69
2021/01/28 07:49:15;;;;;;;2.03;1.50;;;3.80;99.90;;;;;;8373790;28;20012;-68
2021/01/28 07:53:37;;;;;;;2.08;1.40;;;3.80;99.90;;;;;;8359251;28;20032;-69
2021/01/28 07:57:43;;;;;;;2.55;2.00;;;3.90;99.90;;;;;;8359316;28;20097;-68
2021/01/28 08:01:48;;;;;;;2.22;1.52;;;3.90;99.90;;;;;;8373963;28;20074;-69
2021/01/28 08:05:53;;;;;;;2.22;1.60;;;4.00;99.90;;;;;;8376884;28;20036;-67
2021/01/28 08:10:00;;;;;;;1.77;1.30;;;3.90;99.90;;;;;;8364724;28;20640;-67
2021/01/28 08:14:04;;;;;;;2.10;1.70;;;3.90;99.90;;;;;;8384086;28;20020;-67
2021/01/28 08:18:15;;;;;;;1.65;1.50;;;3.90;99.90;;;;;;8407083;28;20029;-67
2021/01/28 08:22:18;;;;;;;0.98;0.93;;;4.00;99.90;;;;;;8365601;28;20624;-67
2021/01/28 08:26:28;;;;;;;2.53;1.83;;;4.00;99.90;;;;;;8387290;28;20081;-67
2021/01/28 08:30:29;;;;;;;2.00;1.60;;;4.10;99.90;;;;;;8380293;28;20024;-67
2021/01/28 08:34:32;;;;;;;0.98;0.88;;;4.10;99.90;;;;;;8377700;28;20062;-67
2021/01/28 08:38:34;;;;;;;2.97;1.33;;;4.10;99.90;;;;;;8373766;28;20029;-68
2021/01/28 08:42:34;;;;;;;1.58;1.20;;;4.10;99.90;;;;;;8374660;28;20027;-67
2021/01/28 08:46:35;;;;;;;1.30;1.10;;;4.10;99.90;;;;;;8374503;28;20834;-68
2021/01/28 08:50:36;;;;;;;1.23;0.73;;;4.20;99.90;;;;;;8372952;28;20074;-67
2021/01/28 08:54:40;;;;;;;1.30;1.00;;;4.30;99.90;;;;;;8373599;28;21019;-67
2021/01/28 08:58:41;;;;;;;1.20;0.95;;;4.30;99.90;;;;;;8371258;28;20055;-67
2021/01/28 09:02:47;;;;;;;2.63;1.42;;;4.30;99.90;;;;;;8364202;28;20025;-69
2021/01/28 09:06:48;;;;;;;0.55;0.47;;;4.30;99.90;;;;;;8360570;28;20025;-68
2021/01/28 09:10:49;;;;;;;1.30;1.00;;;4.40;99.90;;;;;;8361319;28;20021;-68
2021/01/28 09:14:49;;;;;;;1.27;0.77;;;4.40;99.90;;;;;;8361895;28;20522;-68
2021/01/28 09:18:52;;;;;;;1.17;0.80;;;4.50;99.90;;;;;;8388092;28;20032;-67
2021/01/28 09:23:11;;;;;;;0.65;0.60;;;4.50;99.90;;;;;;8395851;28;20039;-68
2021/01/28 09:27:27;;;;;;;0.55;0.50;;;4.60;99.90;;;;;;8395170;28;20515;-68
2021/01/28 09:31:31;;;;;;;1.50;0.90;;;4.50;99.90;;;;;;8396448;28;20102;-68
2021/01/28 09:35:31;;;;;;;1.92;0.98;;;4.50;99.90;;;;;;8386989;28;20108;-68
2021/01/28 09:39:46;;;;;;;1.23;0.95;;;4.50;99.90;;;;;;8363043;28;20033;-68
2021/01/28 09:43:47;;;;;;;0.80;0.60;;;4.40;99.90;;;;;;8365351;28;20121;-68
2021/01/28 09:47:55;;;;;;;0.50;0.45;;;4.30;99.90;;;;;;8380364;28;20028;-68
2021/01/28 09:51:57;;;;;;;0.98;0.90;;;4.20;99.90;;;;;;8395421;28;20021;-68
2021/01/28 09:55:57;;;;;;;1.65;0.50;;;4.20;99.90;;;;;;8394221;28;20398;-68
2021/01/28 09:59:58;;;;;;;2.53;0.77;;;4.20;99.90;;;;;;8383898;28;20037;-69
2021/01/28 10:03:58;;;;;;;0.50;0.50;;;4.40;99.90;;;;;;8393298;28;20022;-69
2021/01/28 10:08:00;;;;;;;0.80;0.50;;;4.50;99.90;;;;;;8388259;28;20579;-68
2021/01/28 10:12:01;;;;;;;0.22;0.22;;;4.60;99.90;;;;;;8392552;28;20467;-68
2021/01/28 10:16:01;;;;;;;0.60;0.35;;;4.70;99.90;;;;;;8390997;28;20097;-68
2021/01/28 10:20:05;;;;;;;0.45;0.30;;;4.80;99.90;;;;;;8394311;28;20024;-68
2021/01/28 10:24:06;;;;;;;0.57;0.50;;;4.80;99.90;;;;;;8390306;28;20441;-69
2021/01/28 10:28:06;;;;;;;0.60;0.45;;;4.80;99.90;;;;;;8394515;28;20086;-69
2021/01/28 10:32:09;;;;;;;0.40;0.40;;;4.80;99.90;;;;;;8393076;28;20120;-68
2021/01/28 10:36:14;;;;;;;0.60;0.45;;;4.80;99.90;;;;;;8392881;28;20036;-68
2021/01/28 10:40:17;;;;;;;1.52;0.75;;;4.90;99.90;;;;;;8393880;28;20741;-69
2021/01/28 10:44:18;;;;;;;0.82;0.75;;;4.80;99.90;;;;;;8391911;28;20036;-68
2021/01/28 10:48:19;;;;;;;0.70;0.70;;;4.80;99.90;;;;;;8373441;28;20028;-68
2021/01/28 10:52:20;;;;;;;1.55;0.55;;;4.80;99.90;;;;;;8360510;28;20550;-68
2021/01/28 10:56:20;;;;;;;0.77;0.65;;;4.70;99.90;;;;;;8371150;28;20024;-68
2021/01/28 11:00:22;;;;;;;1.63;0.82;;;4.70;99.90;;;;;;8374885;28;20468;-68
2021/01/28 11:04:22;;;;;;;0.35;0.35;;;4.60;99.90;;;;;;8376020;28;20112;-68
2021/01/28 11:08:23;;;;;;;0.75;0.60;;;4.60;99.90;;;;;;8375910;28;20544;-68
2021/01/28 11:12:24;;;;;;;0.80;0.50;;;4.70;99.90;;;;;;8375474;28;20022;-68
2021/01/28 11:16:26;;;;;;;0.70;0.55;;;4.80;99.90;;;;;;8375520;28;20083;-70
2021/01/28 11:20:27;;;;;;;0.60;0.60;;;4.80;99.90;;;;;;8371579;28;20051;-68
2021/01/28 11:24:28;;;;;;;1.83;0.65;;;4.80;99.90;;;;;;8371677;28;20104;-68
2021/01/28 11:28:29;;;;;;;0.60;0.60;;;4.80;99.90;;;;;;8375545;28;20016;-68
2021/01/28 11:32:29;;;;;;;0.32;0.32;;;4.90;99.90;;;;;;8375715;28;20070;-68
2021/01/28 11:36:31;;;;;;;0.40;0.40;;;5.00;99.90;;;;;;8392465;28;20066;-67
2021/01/28 11:40:34;;;;;;;0.43;0.43;;;5.10;99.90;;;;;;8391512;28;20063;-68
2021/01/28 11:44:34;;;;;;;0.88;0.55;;;5.20;99.90;;;;;;8392170;28;20616;-68
2021/01/28 11:48:35;;;;;;;0.30;0.30;;;5.20;99.90;;;;;;8392589;28;20078;-68
2021/01/28 11:52:35;;;;;;;1.50;0.50;;;5.30;99.90;;;;;;8379513;28;20017;-68
2021/01/28 11:56:36;;;;;;;0.57;0.57;;;5.30;99.90;;;;;;8378069;28;20047;-67
2021/01/28 12:00:36;;;;;;;0.80;0.60;;;5.40;99.90;;;;;;8389172;28;20032;-67
2021/01/28 12:04:37;;;;;;;1.25;0.70;;;5.40;99.90;;;;;;8378670;28;20029;-67
2021/01/28 12:08:38;;;;;;;0.68;0.40;;;5.60;99.90;;;;;;8373139;28;20150;-68
2021/01/28 12:12:39;;;;;;;0.40;0.40;;;5.70;99.90;;;;;;8367479;28;20029;-68
2021/01/28 12:16:41;;;;;;;2.25;0.70;;;5.60;99.90;;;;;;8368710;28;20029;-68
2021/01/28 12:20:41;;;;;;;0.82;0.40;;;5.70;99.90;;;;;;8386726;28;20051;-68
2021/01/28 12:24:42;;;;;;;0.60;0.40;;;5.70;99.90;;;;;;8384914;28;20040;-68
2021/01/28 12:28:43;;;;;;;0.50;0.40;;;5.80;99.90;;;;;;8364566;28;20033;-67
2021/01/28 12:32:43;;;;;;;0.70;0.65;;;5.80;99.90;;;;;;8387185;28;20074;-67
2021/01/28 12:36:44;;;;;;;0.70;0.70;;;6.00;99.90;;;;;;8386070;28;20394;-68
2021/01/28 12:40:44;;;;;;;1.27;0.45;;;6.10;99.90;;;;;;8370359;28;20032;-67
2021/01/28 12:44:45;;;;;;;1.27;0.85;;;6.20;99.90;;;;;;8382251;28;20029;-67
2021/01/28 12:48:46;;;;;;;0.63;0.52;;;;;;;;;;8396304;28;20430;-67
2021/01/28 12:52:47;;;;;;;0.85;0.60;;;6.70;99.90;;;;;;8373016;28;20029;-68
2021/01/28 12:56:48;;;;;;;0.63;0.52;;;6.50;99.90;;;;;;8367983;28;20029;-67
2021/01/28 13:00:49;;;;;;;0.40;0.40;;;6.50;99.90;;;;;;8373051;28;20537;-67
2021/01/28 13:04:49;;;;;;;1.05;0.70;;;6.50;99.90;;;;;;8383972;28;20034;-67
2021/01/28 13:08:50;;;;;;;0.50;0.50;;;6.50;99.90;;;;;;8395716;28;20567;-67
2021/01/28 13:12:50;;;;;;;1.00;0.80;;;6.50;99.90;;;;;;8395067;28;20028;-67
2021/01/28 13:16:51;;;;;;;0.50;0.40;;;6.40;99.90;;;;;;8393828;28;20032;-67
2021/01/28 13:20:52;;;;;;;1.02;1.00;;;6.40;99.90;;;;;;8397137;28;20158;-68
2021/01/28 13:24:52;;;;;;;0.70;0.70;;;6.40;99.90;;;;;;8386811;28;20039;-68
2021/01/28 13:28:53;;;;;;;0.90;0.90;;;6.50;99.90;;;;;;8378683;28;20021;-68
2021/01/28 13:32:53;;;;;;;2.00;1.10;;;6.40;99.90;;;;;;8377495;28;20539;-68
2021/01/28 13:36:54;;;;;;;1.20;1.10;;;6.50;99.90;;;;;;8378740;28;20534;-68
2021/01/28 13:40:56;;;;;;;2.15;1.00;;;6.50;99.90;;;;;;8379132;28;20104;-68
2021/01/28 13:44:56;;;;;;;0.80;0.68;;;6.40;99.90;;;;;;8378587;28;20371;-68
2021/01/28 13:48:57;;;;;;;1.10;0.80;;;6.30;99.90;;;;;;8377506;28;20127;-68
2021/01/28 13:52:58;;;;;;;2.45;0.80;;;6.20;99.90;;;;;;8389300;28;20024;-68
2021/01/28 13:56:59;;;;;;;0.82;0.70;;;6.30;99.90;;;;;;8385693;28;20112;-69
2021/01/28 14:01:00;;;;;;;0.57;0.55;;;6.30;99.90;;;;;;8391501;28;20284;-68
2021/01/28 14:05:01;;;;;;;2.03;0.80;;;6.50;99.90;;;;;;8395371;28;20020;-68
2021/01/28 14:09:02;;;;;;;0.75;0.70;;;6.40;99.90;;;;;;8390032;28;20458;-69
2021/01/28 14:13:02;;;;;;;1.10;0.85;;;6.30;99.90;;;;;;8392856;28;20016;-67
2021/01/28 14:17:03;;;;;;;1.48;0.90;;;6.30;99.90;;;;;;8380010;28;20391;-67
2021/01/28 14:21:05;;;;;;;0.65;0.65;;;6.30;99.90;;;;;;8373385;28;20055;-67
2021/01/28 14:25:06;;;;;;;1.85;1.02;;;6.30;99.90;;;;;;8359818;28;20102;-68
2021/01/28 14:29:07;;;;;;;1.70;1.60;;;6.20;99.90;;;;;;8374814;28;20025;-68
2021/01/28 14:33:09;;;;;;;1.13;1.02;;;6.30;99.90;;;;;;8372920;28;20145;-68
2021/01/28 14:37:09;;;;;;;1.92;1.42;;;6.30;99.90;;;;;;8381918;28;20028;-69
2021/01/28 14:41:10;;;;;;;0.80;0.80;;;6.30;99.90;;;;;;8378461;28;20043;-68
2021/01/28 14:45:11;;;;;;;2.58;1.13;;;6.30;99.90;;;;;;8376222;28;20672;-68
2021/01/28 14:49:12;;;;;;;2.95;1.10;;;6.30;99.90;;;;;;8372988;28;20448;-68
2021/01/28 14:53:12;;;;;;;2.38;2.17;;;6.20;99.90;;;;;;8372095;28;20029;-69
2021/01/28 14:57:13;;;;;;;1.42;1.30;;;6.30;99.90;;;;;;8372072;28;20041;-69
2021/01/28 15:01:14;;;;;;;5.30;4.25;;;6.20;99.90;;;;;;8381854;28;20499;-69
2021/01/28 15:05:14;;;;;;;3.63;2.80;;;6.20;99.90;;;;;;8369220;28;20032;-68
2021/01/28 15:09:15;;;;;;;1.30;1.10;;;6.20;99.90;;;;;;8364812;28;20028;-68
2021/01/28 15:13:16;;;;;;;1.30;1.20;;;6.20;99.90;;;;;;8371862;28;20025;-68
2021/01/28 15:17:16;;;;;;;2.63;1.73;;;6.20;99.90;;;;;;8359878;28;20491;-69
2021/01/28 15:21:18;;;;;;;1.15;1.05;;;6.20;99.90;;;;;;8361238;28;20549;-68
2021/01/28 15:25:19;;;;;;;2.22;2.08;;;6.30;99.90;;;;;;8374149;28;20028;-69
2021/01/28 15:29:20;;;;;;;2.13;1.92;;;6.20;99.90;;;;;;8377196;28;20112;-70
2021/01/28 15:33:21;;;;;;;1.48;1.38;;;6.20;99.90;;;;;;8365200;28;20100;-71
2021/01/28 15:37:21;;;;;;;2.30;2.10;;;6.20;99.90;;;;;;8366598;28;20075;-70
2021/01/28 15:41:22;;;;;;;3.33;1.83;;;6.20;99.90;;;;;;8380559;28;20533;-71
2021/01/28 15:45:23;;;;;;;2.58;2.38;;;6.20;99.90;;;;;;8373399;28;20037;-70
2021/01/28 15:49:23;;;;;;;2.15;1.83;;;6.20;99.90;;;;;;8380734;28;20036;-74
2021/01/28 15:53:25;;;;;;;2.15;1.95;;;6.30;99.90;;;;;;8385416;28;20033;-73
2021/01/28 15:57:25;;;;;;;2.60;2.40;;;6.20;99.90;;;;;;8380262;28;20134;-75
2021/01/28 16:01:27;;;;;;;17.02;7.75;;;6.30;99.90;;;;;;8377388;28;20025;-76
2021/01/28 16:05:28;;;;;;;2.50;2.10;;;6.30;99.90;;;;;;8379150;28;20021;-71
2021/01/28 16:09:28;;;;;;;3.25;2.42;;;6.40;99.90;;;;;;8369769;28;20435;-73
2021/01/28 16:13:29;;;;;;;3.20;2.30;;;6.30;99.90;;;;;;8366524;28;20400;-73
2021/01/28 16:17:29;;;;;;;4.57;2.88;;;6.40;99.90;;;;;;8377622;28;20025;-74
2021/01/28 16:21:30;;;;;;;4.38;3.28;;;6.40;99.90;;;;;;8372171;28;20032;-75
2021/01/28 16:25:30;;;;;;;1.42;1.33;;;6.40;99.90;;;;;;8360045;28;20021;-75
2021/01/28 16:29:31;;;;;;;2.53;2.33;;;6.40;99.90;;;;;;8351209;28;20024;-71
2021/01/28 16:33:32;;;;;;;2.53;2.33;;;6.40;99.90;;;;;;8369495;28;21483;-71
2021/01/28 16:37:33;;;;;;;5.80;4.18;;;6.50;99.90;;;;;;8358466;28;20112;-70
2021/01/28 16:41:39;;;;;;;3.33;2.80;;;6.50;99.90;;;;;;8360852;28;20029;-71
2021/01/28 16:45:40;;;;;;;2.05;1.85;;;6.50;99.90;;;;;;8366024;28;20028;-72
2021/01/28 16:49:44;;;;;;;3.67;3.05;;;6.50;99.90;;;;;;8379315;28;20035;-72
2021/01/28 16:53:45;;;;;;;3.53;3.22;;;6.60;99.90;;;;;;8384897;28;20056;-72
2021/01/28 16:57:45;;;;;;;2.92;2.63;;;6.60;99.90;;;;;;8384388;28;20511;-72
2021/01/28 17:01:46;;;;;;;4.63;4.22;;;6.70;99.90;;;;;;8383951;28;20028;-72
2021/01/28 17:05:47;;;;;;;5.95;5.32;;;6.70;99.90;;;;;;8373946;28;20640;-72
2021/01/28 17:09:47;;;;;;;4.85;4.45;;;6.70;99.90;;;;;;8372734;28;20032;-72
2021/01/28 17:13:48;;;;;;;1.63;1.50;;;6.70;99.90;;;;;;8389615;28;20029;-71
2021/01/28 17:17:49;;;;;;;6.43;4.63;;;6.80;99.90;;;;;;8362336;28;20028;-72
2021/01/28 17:21:49;;;;;;;5.68;5.05;;;6.80;99.90;;;;;;8362429;28;20025;-72
2021/01/28 17:25:50;;;;;;;3.42;2.72;;;6.90;99.90;;;;;;8362405;28;20040;-75
2021/01/28 17:29:50;;;;;;;4.13;3.75;;;6.90;99.90;;;;;;8368128;28;20379;-73
2021/01/28 17:33:51;;;;;;;5.40;3.40;;;6.90;99.90;;;;;;8371592;28;20468;-71
2021/01/28 17:37:51;;;;;;;2.13;1.90;;;6.90;99.90;;;;;;8364866;28;20021;-71
2021/01/28 17:41:52;;;;;;;4.35;3.95;;;6.90;99.90;;;;;;8370887;28;20612;-71
2021/01/28 17:45:53;;;;;;;4.35;3.95;;;7.00;99.90;;;;;;8366741;28;20049;-70
2021/01/28 17:49:53;;;;;;;3.75;3.45;;;7.00;99.90;;;;;;8367917;28;20514;-73
2021/01/28 17:53:54;;;;;;;3.35;3.05;;;7.00;99.90;;;;;;8365676;28;21529;-71
2021/01/28 17:57:54;;;;;;;5.28;4.78;;;7.00;99.90;;;;;;8372278;28;20468;-71
2021/01/28 18:01:55;;;;;;;3.50;3.05;;;7.00;99.90;;;;;;8372121;28;20029;-70
2021/01/28 18:05:56;;;;;;;4.38;3.20;;;7.00;99.90;;;;;;8372270;28;20036;-70
2021/01/28 18:09:56;;;;;;;3.65;3.30;;;7.00;99.90;;;;;;8374058;28;20020;-71
2021/01/28 18:13:57;;;;;;;4.47;4.07;;;7.00;99.90;;;;;;8375180;28;20021;-69
2021/01/28 18:17:57;;;;;;;3.53;2.95;;;7.00;99.90;;;;;;8375238;28;20021;-71
2021/01/28 18:21:59;;;;;;;3.90;3.50;;;7.00;99.90;;;;;;8373465;28;20100;-71
2021/01/28 18:25:59;;;;;;;2.97;2.65;;;7.00;99.90;;;;;;8376394;28;20599;-71
2021/01/28 18:30:00;;;;;;;3.60;3.30;;;7.00;99.90;;;;;;8371993;28;20040;-72
2021/01/28 18:34:01;;;;;;;4.60;4.10;;;7.00;99.90;;;;;;8376444;28;20020;-72
2021/01/28 18:38:02;;;;;;;3.72;3.33;;;7.00;99.90;;;;;;8373209;28;20025;-69
2021/01/28 18:42:03;;;;;;;3.33;3.03;;;7.00;99.90;;;;;;8372769;28;20406;-71
2021/01/28 18:46:04;;;;;;;3.20;1.98;;;7.00;99.90;;;;;;8371439;28;20025;-72
2021/01/28 18:50:06;;;;;;;4.10;3.70;;;7.00;99.90;;;;;;8367174;28;20040;-70
2021/01/28 18:54:07;;;;;;;5.20;3.75;;;6.90;99.90;;;;;;8371975;28;20024;-70
2021/01/28 18:58:08;;;;;;;4.15;3.38;;;7.00;99.90;;;;;;8367837;28;20032;-71
2021/01/28 19:02:09;;;;;;;4.65;4.18;;;7.00;99.90;;;;;;8372769;28;20047;-70
2021/01/28 19:06:12;;;;;;;4.32;3.85;;;7.00;99.90;;;;;;8370870;28;20071;-72
2021/01/28 19:10:23;;;;;;;5.47;3.80;;;7.10;99.90;;;;;;8359498;28;20720;-72
2021/01/28 19:14:24;;;;;;;5.05;4.30;;;7.10;99.90;;;;;;8362960;28;20029;-72
2021/01/28 19:18:26;;;;;;;2.63;2.40;;;7.10;99.90;;;;;;8361982;28;20041;-72
2021/01/28 19:22:26;;;;;;;5.10;4.60;;;7.10;99.90;;;;;;8366082;28;20090;-72
2021/01/28 19:26:27;;;;;;;4.95;3.47;;;7.10;99.90;;;;;;8360395;28;20083;-72
2021/01/28 19:30:29;;;;;;;3.03;2.72;;;7.10;99.90;;;;;;8362017;28;20522;-72
2021/01/28 19:34:30;;;;;;;5.03;4.20;;;7.20;99.90;;;;;;8365964;28;20032;-75
2021/01/28 19:38:32;;;;;;;4.95;4.47;;;7.10;99.90;;;;;;8367826;28;20082;-74
2021/01/28 19:42:32;;;;;;;3.17;2.90;;;7.20;99.90;;;;;;8368057;28;20029;-74
2021/01/28 19:46:33;;;;;;;3.15;2.63;;;7.20;99.90;;;;;;8368523;28;20035;-74
2021/01/28 19:50:36;;;;;;;4.38;3.97;;;7.30;99.90;;;;;;8375545;28;20037;-74
2021/01/28 19:54:38;;;;;;;5.07;4.57;;;7.30;99.90;;;;;;8375350;28;20630;-74
2021/01/28 19:58:39;;;;;;;6.45;4.10;;;7.30;99.90;;;;;;8375109;28;20482;-75
2021/01/28 20:02:43;;;;;;;6.75;4.95;;;7.30;99.90;;;;;;8363091;28;20025;-75
2021/01/28 20:06:44;;;;;;;4.28;3.88;;;7.30;99.90;;;;;;8369150;28;20040;-74
2021/01/28 20:10:46;;;;;;;3.80;3.40;;;7.30;99.90;;;;;;8363392;28;20052;-74
2021/01/28 20:14:46;;;;;;;8.82;5.97;;;7.30;99.90;;;;;;8371828;28;20032;-74
2021/01/28 20:18:47;;;;;;;7.82;5.22;;;7.20;99.90;;;;;;8382715;28;20500;-74
2021/01/28 20:22:50;;;;;;;15.32;9.60;;;7.20;99.90;;;;;;8384371;28;20730;-74
2021/01/28 20:26:51;;;;;;;5.18;3.92;;;7.20;99.90;;;;;;8368455;28;20029;-73
2021/01/28 20:30:51;;;;;;;6.57;4.65;;;7.20;99.90;;;;;;8376724;28;20099;-74
2021/01/28 20:34:53;;;;;;;4.90;4.20;;;7.20;99.90;;;;;;8384185;28;20021;-74
2021/01/28 20:38:54;;;;;;;4.60;3.58;;;7.20;99.90;;;;;;8368437;28;20468;-74
2021/01/28 20:42:54;;;;;;;5.72;3.90;;;7.30;99.90;;;;;;8380624;28;20039;-74
2021/01/28 20:46:55;;;;;;;3.92;3.55;;;7.40;99.90;;;;;;8369956;28;20028;-74
2021/01/28 20:50:55;;;;;;;4.07;3.67;;;7.30;99.90;;;;;;8365533;28;20090;-74
2021/01/28 20:54:56;;;;;;;12.82;7.45;;;7.20;99.90;;;;;;8379483;28;20105;-76
2021/01/28 20:58:56;;;;;;;5.00;4.50;;;7.10;99.90;;;;;;8382855;28;20037;-74
2021/01/28 21:02:58;;;;;;;5.38;4.88;;;7.10;99.90;;;;;;8372025;28;20033;-75
2021/01/28 21:06:59;;;;;;;5.45;4.85;;;7.00;99.90;;;;;;8373853;28;20017;-75
2021/01/28 21:10:59;;;;;;;7.18;6.18;;;6.90;99.90;;;;;;8371835;28;20021;-74
2021/01/28 21:15:00;;;;;;;7.13;5.63;;;6.90;99.90;;;;;;8374893;28;20039;-74
2021/01/28 21:19:01;;;;;;;6.57;5.78;;;6.80;99.90;;;;;;8370454;28;20492;-73
2021/01/28 21:23:01;;;;;;;6.20;4.90;;;6.80;99.90;;;;;;8374119;28;20044;-73